Time;durP1;ratioP1;P1;durP2;ratioP2;P2;SDS_P1;SDS_P2;PMS_P1;PMS_P2;Temp;Humidity;BMP_temperature;BMP_pressure;BME280_temperature;BME280_humidity;BME280_pressure;Samples;Min_cycle;Max_cycle;Signal;HPM_P1;HPM_P2
2022/10/04 00:02:22;;;;;;;;;;;;;;;;;;5006720;28;19921;-36
2022/10/04 00:04:47;;;;;;;;;;;;;;;;;;5006393;28;20004;-37
2022/10/04 00:07:12;;;;;;;;;;;;;;;;;;5006925;28;19925;-38
2022/10/04 00:09:38;;;;;;;;;;;;;;;;;;5009721;28;19917;-35
2022/10/04 00:12:03;;;;;;;;;;;;;;;;;;5005330;28;19922;-38
2022/10/04 00:14:29;;;;;;;;;;;;;;;;;;5006909;28;19917;-36
2022/10/04 00:16:54;;;;;;;;;;;;;;;;;;5006453;28;20395;-36
2022/10/04 00:19:19;;;;;;;;;;;;;;;;;;5005358;28;19917;-37
2022/10/04 00:21:44;;;;;;;;;;;;;;;;;;5006165;28;20335;-38
2022/10/04 00:24:10;;;;;;;;;;;;;;;;;;5004662;28;19917;-38
2022/10/04 00:26:35;;;;;;;;;;;;;;;;;;5006821;28;20164;-39
2022/10/04 00:29:00;;;;;;;;;;;;;;;;;;5003610;28;19922;-37
2022/10/04 00:31:25;;;;;;;;;;;;;;;;;;5009860;28;19922;-38
2022/10/04 00:33:50;;;;;;;;;;;;;;;;;;5006667;28;19914;-36
2022/10/04 00:36:16;;;;;;;;;;;;;;;;;;5005330;28;20302;-36
2022/10/04 00:38:41;;;;;;;;;;;;;;;;;;5006755;28;19914;-37
2022/10/04 00:41:07;;;;;;;;;;;;;;;;;;5003572;28;19922;-37
2022/10/04 00:43:33;;;;;;;;;;;;;;;;;;5004916;28;19921;-36
2022/10/04 00:45:58;;;;;;;;;;;;;;;;;;5001562;28;19913;-39
2022/10/04 00:48:23;;;;;;;;;;;;;;;;;;5004437;28;20102;-39
2022/10/04 00:50:49;;;;;;;;;;;;;;;;;;5006230;28;19921;-36
2022/10/04 00:53:15;;;;;;;;;;;;;;;;;;5001851;28;19914;-38
2022/10/04 00:55:41;;;;;;;;;;;;;;;;;;5006094;28;19914;-38
2022/10/04 00:58:06;;;;;;;;;;;;;;;;;;5002679;28;19917;-39
2022/10/04 01:00:34;;;;;;;;;;;;;;;;;;5006168;28;20306;-39
2022/10/04 01:02:59;;;;;;;;;;;;;;;;;;5001665;28;19925;-40
2022/10/04 01:05:26;;;;;;;;;;;;;;;;;;5003893;28;19909;-36
2022/10/04 01:07:51;;;;;;;;;;;;;;;;;;5003455;28;20366;-39
2022/10/04 01:10:17;;;;;;;;;;;;;;;;;;5003509;28;19960;-39
2022/10/04 01:12:42;;;;;;;;;;;;;;;;;;5004122;28;19983;-39
2022/10/04 01:15:07;;;;;;;;;;;;;;;;;;5004403;28;20410;-39
2022/10/04 01:17:32;;;;;;;;;;;;;;;;;;5003073;28;19913;-39
2022/10/04 01:19:58;;;;;;;;;;;;;;;;;;5005514;28;20018;-38
2022/10/04 01:22:23;;;;;;;;;;;;;;;;;;5004718;28;19914;-36
2022/10/04 01:24:48;;;;;;;;;;;;;;;;;;5005537;28;19914;-40
2022/10/04 01:27:13;;;;;;;;;;;;;;;;;;5001442;28;20028;-37
2022/10/04 01:29:38;;;;;;;;;;;;;;;;;;5003092;28;19919;-36
2022/10/04 01:32:03;;;;;;;;;;;;;;;;;;5003869;28;19940;-37
2022/10/04 01:34:29;;;;;;;;;;;;;;;;;;5003943;28;19940;-38
2022/10/04 01:36:54;;;;;;;;;;;;;;;;;;5004086;28;20355;-37
2022/10/04 01:39:19;;;;;;;;;;;;;;;;;;5003162;28;19929;-36
2022/10/04 01:41:45;;;;;;;;;;;;;;;;;;5003919;28;19921;-36
2022/10/04 01:44:10;;;;;;;;;;;;;;;;;;5004389;28;20006;-38
2022/10/04 01:46:35;;;;;;;;;;;;;;;;;;5004466;28;19936;-36
2022/10/04 01:49:00;;;;;;;;;;;;;;;;;;5002750;28;19928;-39
2022/10/04 01:51:25;;;;;;;;;;;;;;;;;;5005689;28;19925;-39
2022/10/04 01:53:50;;;;;;;;;;;;;;;;;;5004001;28;19913;-39
2022/10/04 01:56:16;;;;;;;;;;;;;;;;;;5003763;28;20628;-36
2022/10/04 01:58:41;;;;;;;;;;;;;;;;;;5005751;28;19913;-38
2022/10/04 02:01:06;;;;;;;;;;;;;;;;;;5002192;28;20474;-36
2022/10/04 02:03:32;;;;;;;;;;;;;;;;;;5004487;28;19914;-36
2022/10/04 02:05:57;;;;;;;;;;;;;;;;;;5004574;28;19913;-39
2022/10/04 02:08:22;;;;;;;;;;;;;;;;;;5004514;28;20348;-37
2022/10/04 02:10:47;;;;;;;;;;;;;;;;;;5003091;28;19924;-38
2022/10/04 02:13:13;;;;;;;;;;;;;;;;;;5000369;28;19964;-39
2022/10/04 02:15:38;;;;;;;;;;;;;;;;;;5000741;28;19918;-39
2022/10/04 02:18:05;;;;;;;;;;;;;;;;;;5002536;28;19913;-38
2022/10/04 02:20:30;;;;;;;;;;;;;;;;;;5002425;28;19917;-39
2022/10/04 02:22:55;;;;;;;;;;;;;;;;;;4998084;28;19921;-37
2022/10/04 02:25:20;;;;;;;;;;;;;;;;;;5003778;28;19921;-37
2022/10/04 02:27:45;;;;;;;;;;;;;;;;;;5001561;28;19960;-37
2022/10/04 02:30:11;;;;;;;;;;;;;;;;;;5000150;28;19983;-37
2022/10/04 02:35:31;;;;;;;;;;;;;;;;;;4999474;28;20156;-38
2022/10/04 02:37:57;;;;;;;;;;;;;;;;;;5003285;28;20338;-40
2022/10/04 02:40:22;;;;;;;;;;;;;;;;;;5006091;28;20177;-38
2022/10/04 02:42:47;;;;;;;;;;;;;;;;;;5007208;28;19918;-38
2022/10/04 02:45:12;;;;;;;;;;;;;;;;;;5002972;28;19924;-38
2022/10/04 02:47:38;;;;;;;;;;;;;;;;;;5006803;28;19927;-38
2022/10/04 02:50:03;;;;;;;;;;;;;;;;;;5006915;28;20280;-37
2022/10/04 02:52:28;;;;;;;;;;;;;;;;;;5006265;28;20310;-37
2022/10/04 02:54:53;;;;;;;;;;;;;;;;;;5006568;28;19918;-39
2022/10/04 02:57:18;;;;;;;;;;;;;;;;;;5006786;28;19913;-36
2022/10/04 02:59:43;;;;;;;;;;;;;;;;;;5006873;28;19924;-38
2022/10/04 03:02:09;;;;;;;;;;;;;;;;;;5006589;28;20213;-36
2022/10/04 03:04:35;;;;;;;;;;;;;;;;;;5005790;28;20382;-36
2022/10/04 03:07:00;;;;;;;;;;;;;;;;;;5006865;28;19951;-39
2022/10/04 03:09:25;;;;;;;;;;;;;;;;;;5005997;28;20001;-36
2022/10/04 03:11:50;;;;;;;;;;;;;;;;;;5004873;28;20184;-39
2022/10/04 03:14:15;;;;;;;;;;;;;;;;;;5006904;28;19914;-39
2022/10/04 03:16:41;;;;;;;;;;;;;;;;;;5007122;28;20310;-39
2022/10/04 03:19:06;;;;;;;;;;;;;;;;;;5005004;28;19928;-37
2022/10/04 03:21:32;;;;;;;;;;;;;;;;;;5006468;28;19914;-40
2022/10/04 03:23:59;;;;;;;;;;;;;;;;;;5005979;28;19952;-36
2022/10/04 03:26:25;;;;;;;;;;;;;;;;;;5006136;28;19921;-36
2022/10/04 03:28:50;;;;;;;;;;;;;;;;;;5002957;28;20339;-39
2022/10/04 03:31:15;;;;;;;;;;;;;;;;;;5006320;28;19929;-36
2022/10/04 03:33:40;;;;;;;;;;;;;;;;;;5006484;28;19957;-36
2022/10/04 03:36:05;;;;;;;;;;;;;;;;;;5003487;28;19925;-37
2022/10/04 03:38:31;;;;;;;;;;;;;;;;;;5005247;28;19914;-38
2022/10/04 03:40:56;;;;;;;;;;;;;;;;;;5004996;28;20415;-38
2022/10/04 03:43:23;;;;;;;;;;;;;;;;;;5002740;28;19945;-37
2022/10/04 03:45:48;;;;;;;;;;;;;;;;;;5005754;28;20434;-37
2022/10/04 03:48:13;;;;;;;;;;;;;;;;;;5004665;28;19996;-36
2022/10/04 03:50:40;;;;;;;;;;;;;;;;;;5005684;28;20641;-39
2022/10/04 03:53:05;;;;;;;;;;;;;;;;;;5005593;28;21291;-39
2022/10/04 03:55:30;;;;;;;;;;;;;;;;;;5006171;28;19913;-37
2022/10/04 03:57:55;;;;;;;;;;;;;;;;;;5006171;28;19913;-38
2022/10/04 04:00:20;;;;;;;;;;;;;;;;;;5006102;28;19940;-39
2022/10/04 04:02:45;;;;;;;;;;;;;;;;;;5004801;28;19928;-38
2022/10/04 04:05:11;;;;;;;;;;;;;;;;;;5003819;28;19921;-36
2022/10/04 04:07:36;;;;;;;;;;;;;;;;;;5006393;28;20286;-40
2022/10/04 04:10:02;;;;;;;;;;;;;;;;;;5006656;28;19920;-36
2022/10/04 04:12:29;;;;;;;;;;;;;;;;;;5006713;28;19913;-38
2022/10/04 04:14:54;;;;;;;;;;;;;;;;;;5005661;28;19917;-39
2022/10/04 04:17:19;;;;;;;;;;;;;;;;;;5006955;28;19925;-35
2022/10/04 04:19:45;;;;;;;;;;;;;;;;;;5006404;28;20012;-39
2022/10/04 04:22:10;;;;;;;;;;;;;;;;;;5004140;28;19992;-39
2022/10/04 04:24:35;;;;;;;;;;;;;;;;;;5005845;28;19917;-37
2022/10/04 04:27:02;;;;;;;;;;;;;;;;;;5003281;28;20459;-36
2022/10/04 04:29:27;;;;;;;;;;;;;;;;;;5003140;28;20367;-39
2022/10/04 04:31:52;;;;;;;;;;;;;;;;;;5004963;28;19968;-36
2022/10/04 04:34:17;;;;;;;;;;;;;;;;;;5005281;28;19925;-35
2022/10/04 04:36:42;;;;;;;;;;;;;;;;;;5005113;28;19988;-39
2022/10/04 04:41:51;;;;;;;;;;;;;;;;;;5004760;28;19928;-37
2022/10/04 04:44:17;;;;;;;;;;;;;;;;;;5005459;28;19921;-39
2022/10/04 04:46:43;;;;;;;;;;;;;;;;;;5004542;28;20284;-39
2022/10/04 04:49:08;;;;;;;;;;;;;;;;;;5004532;28;19913;-39
2022/10/04 04:51:33;;;;;;;;;;;;;;;;;;5000993;28;20334;-38
2022/10/04 04:53:59;;;;;;;;;;;;;;;;;;5004317;28;20072;-36
2022/10/04 04:56:24;;;;;;;;;;;;;;;;;;5004640;28;20351;-38
2022/10/04 04:58:50;;;;;;;;;;;;;;;;;;5006084;28;19921;-39
2022/10/04 05:01:15;;;;;;;;;;;;;;;;;;5007309;28;19917;-39
2022/10/04 05:03:40;;;;;;;;;;;;;;;;;;5004154;28;19917;-36
2022/10/04 05:06:06;;;;;;;;;;;;;;;;;;5006700;28;19961;-36
2022/10/04 05:08:31;;;;;;;;;;;;;;;;;;5002922;28;20377;-37
2022/10/04 05:10:56;;;;;;;;;;;;;;;;;;5003370;28;20398;-37
2022/10/04 05:13:21;;;;;;;;;;;;;;;;;;5003963;28;19914;-37
2022/10/04 05:15:47;;;;;;;;;;;;;;;;;;5003045;28;19931;-38
2022/10/04 05:18:14;;;;;;;;;;;;;;;;;;5006594;28;19914;-38
2022/10/04 05:20:39;;;;;;;;;;;;;;;;;;5003157;28;19928;-39
2022/10/04 05:23:06;;;;;;;;;;;;;;;;;;5003531;28;20194;-36
2022/10/04 05:25:32;;;;;;;;;;;;;;;;;;5004175;28;19917;-39
2022/10/04 05:27:57;;;;;;;;;;;;;;;;;;5005477;28;19971;-38
2022/10/04 05:30:22;;;;;;;;;;;;;;;;;;5007798;28;19916;-39
2022/10/04 05:32:47;;;;;;;;;;;;;;;;;;5004902;28;19921;-36
2022/10/04 05:35:12;;;;;;;;;;;;;;;;;;5005584;28;19952;-38
2022/10/04 05:37:38;;;;;;;;;;;;;;;;;;4999019;28;20000;-40
2022/10/04 05:40:03;;;;;;;;;;;;;;;;;;5006281;28;19914;-36
2022/10/04 05:42:28;;;;;;;;;;;;;;;;;;5002953;28;20387;-39
2022/10/04 05:44:53;;;;;;;;;;;;;;;;;;5003822;28;19976;-36
2022/10/04 05:47:22;;;;;;;;;;;;;;;;;;5005733;28;20362;-39
2022/10/04 05:49:48;;;;;;;;;;;;;;;;;;5003055;28;19921;-37
2022/10/04 05:52:13;;;;;;;;;;;;;;;;;;4999774;28;19922;-37
2022/10/04 05:54:38;;;;;;;;;;;;;;;;;;4999972;28;20040;-38
2022/10/04 05:57:03;;;;;;;;;;;;;;;;;;4999009;28;19918;-39
2022/10/04 05:59:28;;;;;;;;;;;;;;;;;;4996462;28;19926;-39
2022/10/04 06:01:53;;;;;;;;;;;;;;;;;;4998357;28;20401;-37
2022/10/04 06:04:19;;;;;;;;;;;;;;;;;;4998213;28;19960;-37
2022/10/04 06:06:44;;;;;;;;;;;;;;;;;;5001000;28;20021;-38
2022/10/04 06:09:09;;;;;;;;;;;;;;;;;;5001219;28;20435;-39
2022/10/04 06:11:34;;;;;;;;;;;;;;;;;;5003729;28;19932;-37
2022/10/04 06:13:59;;;;;;;;;;;;;;;;;;5005651;28;19920;-38
2022/10/04 06:16:25;;;;;;;;;;;;;;;;;;5005315;28;20513;-39
2022/10/04 06:18:50;;;;;;;;;;;;;;;;;;5006922;28;20319;-39
2022/10/04 06:21:15;;;;;;;;;;;;;;;;;;5007155;28;19917;-39
2022/10/04 06:23:41;;;;;;;;;;;;;;;;;;5006239;28;20152;-36
2022/10/04 06:26:06;;;;;;;;;;;;;;;;;;5006781;28;20351;-37
2022/10/04 06:28:31;;;;;;;;;;;;;;;;;;5006208;28;19917;-39
2022/10/04 06:30:56;;;;;;;;;;;;;;;;;;5008109;28;19960;-37
2022/10/04 06:33:21;;;;;;;;;;;;;;;;;;5007584;28;20283;-38
2022/10/04 06:35:46;;;;;;;;;;;;;;;;;;5006644;28;19921;-38
2022/10/04 06:38:11;;;;;;;;;;;;;;;;;;5006809;28;19922;-38
2022/10/04 06:40:37;;;;;;;;;;;;;;;;;;5003413;28;19913;-39
2022/10/04 06:43:02;;;;;;;;;;;;;;;;;;5006285;28;19918;-39
2022/10/04 06:45:30;;;;;;;;;;;;;;;;;;5005703;28;19913;-37
2022/10/04 06:47:55;;;;;;;;;;;;;;;;;;5008269;28;19921;-37
2022/10/04 06:50:21;;;;;;;;;;;;;;;;;;5008115;28;19917;-36
2022/10/04 06:52:46;;;;;;;;;;;;;;;;;;5007141;28;20367;-37
2022/10/04 06:55:11;;;;;;;;;;;;;;;;;;5005060;28;19920;-37
2022/10/04 06:57:36;;;;;;;;;;;;;;;;;;5005281;28;19917;-38
2022/10/04 07:00:02;;;;;;;;;;;;;;;;;;5005809;28;19918;-38
2022/10/04 07:02:27;;;;;;;;;;;;;;;;;;5007032;28;19913;-38
2022/10/04 07:04:52;;;;;;;;;;;;;;;;;;5006342;28;19921;-38
2022/10/04 07:07:33;;;;;;;;;;;;;;;;;;5008012;28;20397;-39
2022/10/04 07:09:58;;;;;;;;;;;;;;;;;;5008332;28;19967;-40
2022/10/04 07:12:24;;;;;;;;;;;;;;;;;;5007765;28;19925;-39
2022/10/04 07:14:49;;;;;;;;;;;;;;;;;;5006378;28;19918;-38
2022/10/04 07:17:14;;;;;;;;;;;;;;;;;;5008144;28;19961;-39
2022/10/04 07:19:39;;;;;;;;;;;;;;;;;;5007059;28;19913;-40
2022/10/04 07:22:04;;;;;;;;;;;;;;;;;;5008242;28;19982;-37
2022/10/04 07:24:30;;;;;;;;;;;;;;;;;;5005895;28;19917;-38
2022/10/04 07:26:55;;;;;;;;;;;;;;;;;;5007833;28;20379;-38
2022/10/04 07:29:21;;;;;;;;;;;;;;;;;;5006746;28;19921;-39
2022/10/04 07:31:46;;;;;;;;;;;;;;;;;;5007414;28;19933;-38
2022/10/04 07:34:11;;;;;;;;;;;;;;;;;;5007680;28;19984;-36
2022/10/04 07:36:37;;;;;;;;;;;;;;;;;;5006538;28;19940;-38
2022/10/04 07:39:03;;;;;;;;;;;;;;;;;;5008036;28;20008;-39
2022/10/04 07:41:28;;;;;;;;;;;;;;;;;;5009065;28;20102;-38
2022/10/04 07:43:55;;;;;;;;;;;;;;;;;;5006159;28;20399;-40
2022/10/04 07:46:20;;;;;;;;;;;;;;;;;;5007420;28;19960;-39
2022/10/04 07:48:48;;;;;;;;;;;;;;;;;;5006386;28;19925;-39
2022/10/04 07:51:13;;;;;;;;;;;;;;;;;;5007197;28;20196;-39
2022/10/04 07:53:38;;;;;;;;;;;;;;;;;;5005962;28;19918;-40
2022/10/04 07:56:03;;;;;;;;;;;;;;;;;;5007383;28;19914;-36
2022/10/04 07:58:28;;;;;;;;;;;;;;;;;;5005332;28;20370;-39
2022/10/04 08:00:54;;;;;;;;;;;;;;;;;;5007452;28;19918;-40
2022/10/04 08:03:19;;;;;;;;;;;;;;;;;;5007267;28;20352;-40
2022/10/04 08:05:44;;;;;;;;;;;;;;;;;;5005777;28;19925;-38
2022/10/04 08:08:09;;;;;;;;;;;;;;;;;;5007150;28;19913;-39
2022/10/04 08:10:34;;;;;;;;;;;;;;;;;;5006056;28;19925;-40
2022/10/04 08:12:59;;;;;;;;;;;;;;;;;;5005424;28;19913;-38
2022/10/04 08:15:25;;;;;;;;;;;;;;;;;;5004310;28;20168;-39
2022/10/04 08:17:50;;;;;;;;;;;;;;;;;;5003994;28;19917;-39
2022/10/04 08:20:15;;;;;;;;;;;;;;;;;;5004610;28;19918;-39
2022/10/04 08:22:40;;;;;;;;;;;;;;;;;;5005952;28;20323;-39
2022/10/04 08:25:05;;;;;;;;;;;;;;;;;;5004308;28;19920;-40
2022/10/04 08:27:31;;;;;;;;;;;;;;;;;;5006065;28;19971;-38
2022/10/04 08:29:57;;;;;;;;;;;;;;;;;;5005587;28;19913;-37
2022/10/04 08:32:22;;;;;;;;;;;;;;;;;;5005814;28;19917;-37
2022/10/04 08:34:47;;;;;;;;;;;;;;;;;;5005306;28;20405;-39
2022/10/04 08:37:13;;;;;;;;;;;;;;;;;;5005987;28;19920;-40
2022/10/04 08:39:38;;;;;;;;;;;;;;;;;;5005774;28;19928;-39
2022/10/04 08:42:03;;;;;;;;;;;;;;;;;;5006086;28;19927;-39
2022/10/04 08:44:28;;;;;;;;;;;;;;;;;;5004542;28;19921;-39
2022/10/04 08:46:54;;;;;;;;;;;;;;;;;;5004651;28;19959;-38
2022/10/04 08:49:20;;;;;;;;;;;;;;;;;;5005584;28;19914;-39
2022/10/04 08:51:45;;;;;;;;;;;;;;;;;;5005157;28;19931;-38
2022/10/04 08:54:10;;;;;;;;;;;;;;;;;;5005106;28;19968;-39
2022/10/04 08:56:35;;;;;;;;;;;;;;;;;;5005753;28;19939;-40
2022/10/04 08:59:01;;;;;;;;;;;;;;;;;;5005783;28;19918;-37
2022/10/04 09:01:26;;;;;;;;;;;;;;;;;;5004672;28;19917;-39
2022/10/04 09:03:56;;;;;;;;;;;;;;;;;;5002292;28;19971;-37
2022/10/04 09:06:21;;;;;;;;;;;;;;;;;;5003286;28;19968;-40
2022/10/04 09:08:46;;;;;;;;;;;;;;;;;;5005941;28;19917;-40
2022/10/04 09:11:11;;;;;;;;;;;;;;;;;;5004227;28;19917;-39
2022/10/04 09:13:37;;;;;;;;;;;;;;;;;;5005705;28;20405;-38
2022/10/04 09:16:02;;;;;;;;;;;;;;;;;;5006277;28;19921;-39
2022/10/04 09:18:28;;;;;;;;;;;;;;;;;;5006515;28;19913;-40
2022/10/04 09:20:53;;;;;;;;;;;;;;;;;;5005139;28;19920;-40
2022/10/04 09:23:21;;;;;;;;;;;;;;;;;;5005608;28;19909;-38
2022/10/04 09:25:47;;;;;;;;;;;;;;;;;;5004503;28;19920;-39
2022/10/04 09:28:14;;;;;;;;;;;;;;;;;;5005926;28;19913;-37
2022/10/04 09:30:39;;;;;;;;;;;;;;;;;;5004022;28;20220;-38
2022/10/04 09:33:04;;;;;;;;;;;;;;;;;;5002438;28;20362;-37
2022/10/04 09:35:30;;;;;;;;;;;;;;;;;;5004455;28;19987;-39
2022/10/04 09:37:55;;;;;;;;;;;;;;;;;;5006343;28;20268;-39
2022/10/04 09:40:20;;;;;;;;;;;;;;;;;;5002453;28;19914;-39
2022/10/04 09:42:45;;;;;;;;;;;;;;;;;;5006310;28;19948;-39
2022/10/04 09:45:11;;;;;;;;;;;;;;;;;;5005568;28;19913;-38
2022/10/04 09:47:40;;;;;;;;;;;;;;;;;;5003214;28;19917;-39
2022/10/04 09:50:06;;;;;;;;;;;;;;;;;;5008953;28;19914;-40
2022/10/04 09:52:31;;;;;;;;;;;;;;;;;;5007859;28;19933;-38
2022/10/04 09:54:56;;;;;;;;;;;;;;;;;;5007751;28;20099;-38
2022/10/04 09:57:23;;;;;;;;;;;;;;;;;;5008547;28;19924;-40
2022/10/04 09:59:50;;;;;;;;;;;;;;;;;;5008456;28;19913;-39
2022/10/04 10:02:16;;;;;;;;;;;;;;;;;;5007330;28;20341;-39
2022/10/04 10:04:41;;;;;;;;;;;;;;;;;;5006434;28;19914;-39
2022/10/04 10:07:06;;;;;;;;;;;;;;;;;;5008988;28;19918;-39
2022/10/04 10:14:59;;;;;;;;;;;;;;;;;;5006825;28;20012;-40
2022/10/04 10:17:25;;;;;;;;;;;;;;;;;;5003516;28;20012;-39
2022/10/04 10:19:50;;;;;;;;;;;;;;;;;;5005470;28;19913;-40
2022/10/04 10:22:15;;;;;;;;;;;;;;;;;;5007927;28;20358;-37
2022/10/04 10:24:42;;;;;;;;;;;;;;;;;;5010012;28;19936;-36
2022/10/04 10:27:07;;;;;;;;;;;;;;;;;;5008611;28;19928;-37
2022/10/04 10:29:33;;;;;;;;;;;;;;;;;;5007227;28;19922;-39
2022/10/04 10:31:58;;;;;;;;;;;;;;;;;;4998370;28;20371;-38
2022/10/04 10:34:24;;;;;;;;;;;;;;;;;;5002511;28;19913;-40
2022/10/04 10:36:49;;;;;;;;;;;;;;;;;;5005079;28;19922;-38
2022/10/04 10:39:14;;;;;;;;;;;;;;;;;;5002613;28;20582;-39
2022/10/04 10:41:39;;;;;;;;;;;;;;;;;;5000476;28;20141;-40
2022/10/04 10:44:06;;;;;;;;;;;;;;;;;;5002843;28;20330;-38
2022/10/04 10:46:32;;;;;;;;;;;;;;;;;;4999841;28;19928;-40
2022/10/04 10:48:57;;;;;;;;;;;;;;;;;;5001781;28;19918;-40
2022/10/04 10:51:22;;;;;;;;;;;;;;;;;;5002446;28;20012;-39
2022/10/04 10:53:47;;;;;;;;;;;;;;;;;;5003307;28;19917;-37
2022/10/04 10:56:12;;;;;;;;;;;;;;;;;;5001066;28;19917;-39
2022/10/04 10:58:37;;;;;;;;;;;;;;;;;;5000487;28;20342;-38
2022/10/04 11:01:03;;;;;;;;;;;;;;;;;;4999324;28;20019;-40
2022/10/04 11:03:28;;;;;;;;;;;;;;;;;;5000569;28;20241;-39
2022/10/04 11:05:57;;;;;;;;;;;;;;;;;;4999958;28;20094;-39
2022/10/04 11:08:23;;;;;;;;;;;;;;;;;;4999585;28;20056;-40
2022/10/04 11:10:48;;;;;;;;;;;;;;;;;;5001776;28;19921;-39
2022/10/04 11:13:13;;;;;;;;;;;;;;;;;;5001737;28;19913;-39
2022/10/04 11:15:38;;;;;;;;;;;;;;;;;;5003697;28;19924;-39
2022/10/04 11:18:04;;;;;;;;;;;;;;;;;;5002083;28;20349;-40
2022/10/04 11:20:29;;;;;;;;;;;;;;;;;;4998262;28;20318;-37
2022/10/04 11:22:54;;;;;;;;;;;;;;;;;;5000807;28;19980;-40
2022/10/04 11:25:20;;;;;;;;;;;;;;;;;;5003590;28;19940;-39
2022/10/04 11:27:45;;;;;;;;;;;;;;;;;;5003881;28;19921;-37
2022/10/04 11:30:10;;;;;;;;;;;;;;;;;;5000444;28;19918;-39
2022/10/04 11:32:35;;;;;;;;;;;;;;;;;;5003178;28;20036;-40
2022/10/04 11:35:01;;;;;;;;;;;;;;;;;;5003002;28;20571;-39
2022/10/04 11:37:26;;;;;;;;;;;;;;;;;;5002531;28;19929;-39
2022/10/04 11:39:51;;;;;;;;;;;;;;;;;;5002847;28;20379;-38
2022/10/04 11:42:17;;;;;;;;;;;;;;;;;;5003996;28;19967;-39
2022/10/04 11:44:42;;;;;;;;;;;;;;;;;;5003060;28;19917;-39
2022/10/04 11:47:08;;;;;;;;;;;;;;;;;;5002154;28;19922;-39
2022/10/04 11:49:34;;;;;;;;;;;;;;;;;;5004340;28;19918;-37
2022/10/04 11:51:59;;;;;;;;;;;;;;;;;;5000476;28;20363;-40
2022/10/04 11:54:26;;;;;;;;;;;;;;;;;;5001988;28;19940;-37
2022/10/04 11:56:55;;;;;;;;;;;;;;;;;;5001432;28;19917;-40
2022/10/04 11:59:20;;;;;;;;;;;;;;;;;;5001167;28;20448;-39
2022/10/04 12:01:46;;;;;;;;;;;;;;;;;;5002743;28;19928;-40
2022/10/04 12:04:11;;;;;;;;;;;;;;;;;;5002459;28;19921;-38
2022/10/04 12:06:36;;;;;;;;;;;;;;;;;;5004449;28;19918;-40
2022/10/04 12:09:04;;;;;;;;;;;;;;;;;;4999828;28;19925;-39
2022/10/04 12:12:35;;;;;;;;;;;;;;;;;;5002275;28;19928;-40
2022/10/04 12:14:23;;;;;;;;;;;;;;;;;;5001307;28;19917;-40
2022/10/04 12:16:48;;;;;;;;;;;;;;;;;;5001401;28;19987;-40
2022/10/04 12:19:14;;;;;;;;;;;;;;;;;;5000162;28;20008;-40
2022/10/04 12:21:39;;;;;;;;;;;;;;;;;;5000888;28;19920;-40
2022/10/04 12:24:04;;;;;;;;;;;;;;;;;;5002824;28;19928;-39
2022/10/04 12:26:31;;;;;;;;;;;;;;;;;;5005070;28;20040;-38
2022/10/04 12:28:56;;;;;;;;;;;;;;;;;;4997037;28;19944;-37
2022/10/04 12:31:21;;;;;;;;;;;;;;;;;;5002795;28;19918;-39
2022/10/04 12:33:47;;;;;;;;;;;;;;;;;;5003095;28;20375;-39
2022/10/04 12:36:13;;;;;;;;;;;;;;;;;;5003064;28;20347;-38
2022/10/04 12:38:38;;;;;;;;;;;;;;;;;;5004133;28;19924;-40
2022/10/04 12:41:03;;;;;;;;;;;;;;;;;;5000328;28;20184;-40
2022/10/04 12:43:29;;;;;;;;;;;;;;;;;;4998320;28;19918;-41
2022/10/04 12:45:55;;;;;;;;;;;;;;;;;;5001049;28;19924;-37
2022/10/04 12:48:20;;;;;;;;;;;;;;;;;;4998653;28;19913;-39
2022/10/04 12:50:45;;;;;;;;;;;;;;;;;;5000790;28;20024;-38
2022/10/04 12:53:12;;;;;;;;;;;;;;;;;;4998972;28;19918;-40
2022/10/04 12:55:37;;;;;;;;;;;;;;;;;;5002879;28;19917;-40
2022/10/04 12:58:02;;;;;;;;;;;;;;;;;;4999091;28;20726;-40
2022/10/04 13:00:27;;;;;;;;;;;;;;;;;;5005128;28;19925;-40
2022/10/04 13:02:53;;;;;;;;;;;;;;;;;;5018500;28;19921;-40
2022/10/04 13:05:19;;;;;;;;;;;;;;;;;;5004965;28;19917;-40
2022/10/04 13:07:44;;;;;;;;;;;;;;;;;;5004370;28;19913;-40
2022/10/04 13:10:09;;;;;;;;;;;;;;;;;;5001572;28;20375;-40
2022/10/04 13:12:37;;;;;;;;;;;;;;;;;;4998102;28;20311;-40
2022/10/04 13:15:02;;;;;;;;;;;;;;;;;;4994843;28;19988;-40
2022/10/04 13:17:28;;;;;;;;;;;;;;;;;;4997997;28;20480;-40
2022/10/04 13:19:53;;;;;;;;;;;;;;;;;;5001304;28;19921;-40
2022/10/04 13:22:18;;;;;;;;;;;;;;;;;;5003578;28;20460;-40
2022/10/04 13:24:56;;;;;;;;;;;;;;;;;;5001515;28;19918;-40
2022/10/04 13:27:22;;;;;;;;;;;;;;;;;;5001079;28;20279;-40
2022/10/04 13:29:47;;;;;;;;;;;;;;;;;;4999528;28;19917;-40
2022/10/04 13:32:13;;;;;;;;;;;;;;;;;;5002715;28;20383;-40
2022/10/04 13:34:38;;;;;;;;;;;;;;;;;;5000765;28;20445;-40
2022/10/04 13:37:03;;;;;;;;;;;;;;;;;;4997180;28;19921;-39
2022/10/04 13:39:28;;;;;;;;;;;;;;;;;;4999946;28;19918;-39
2022/10/04 13:41:53;;;;;;;;;;;;;;;;;;4998773;28;20280;-40
2022/10/04 13:44:18;;;;;;;;;;;;;;;;;;5003049;28;19924;-40
2022/10/04 13:46:43;;;;;;;;;;;;;;;;;;5003328;28;20279;-40
2022/10/04 13:49:09;;;;;;;;;;;;;;;;;;5001298;28;19928;-40
2022/10/04 13:51:34;;;;;;;;;;;;;;;;;;5004052;28;19991;-40
2022/10/04 13:56:43;;;;;;;;;;;;;;;;;;5002565;28;20287;-39
2022/10/04 13:59:08;;;;;;;;;;;;;;;;;;5003068;28;19925;-39
2022/10/04 14:01:33;;;;;;;;;;;;;;;;;;5002805;28;19960;-40
2022/10/04 14:03:58;;;;;;;;;;;;;;;;;;5001173;28;20375;-39
2022/10/04 14:06:24;;;;;;;;;;;;;;;;;;5001329;28;19921;-40
2022/10/04 14:08:49;;;;;;;;;;;;;;;;;;5001734;28;19952;-38
2022/10/04 14:11:16;;;;;;;;;;;;;;;;;;5002752;28;19929;-39
2022/10/04 14:13:42;;;;;;;;;;;;;;;;;;5001584;28;19921;-40
2022/10/04 14:16:07;;;;;;;;;;;;;;;;;;5002766;28;19967;-40
2022/10/04 14:18:32;;;;;;;;;;;;;;;;;;4999439;28;20406;-40
2022/10/04 14:20:58;;;;;;;;;;;;;;;;;;4999507;28;19913;-40
2022/10/04 14:23:23;;;;;;;;;;;;;;;;;;5000764;28;19971;-41
2022/10/04 14:25:49;;;;;;;;;;;;;;;;;;5002172;28;19917;-40
2022/10/04 14:28:14;;;;;;;;;;;;;;;;;;5004273;28;19959;-40
2022/10/04 14:30:39;;;;;;;;;;;;;;;;;;4995900;28;19932;-39
2022/10/04 14:33:06;;;;;;;;;;;;;;;;;;5002532;28;20398;-40
2022/10/04 14:35:31;;;;;;;;;;;;;;;;;;5002179;28;19952;-41
2022/10/04 14:37:56;;;;;;;;;;;;;;;;;;5004414;28;20011;-40
2022/10/04 14:40:21;;;;;;;;;;;;;;;;;;5005805;28;19920;-40
2022/10/04 14:42:47;;;;;;;;;;;;;;;;;;5005811;28;19918;-40
2022/10/04 14:45:12;;;;;;;;;;;;;;;;;;5003648;28;19917;-40
2022/10/04 14:47:37;;;;;;;;;;;;;;;;;;5007063;28;20366;-38
2022/10/04 14:50:02;;;;;;;;;;;;;;;;;;5007003;28;19991;-40
2022/10/04 14:52:27;;;;;;;;;;;;;;;;;;5006565;28;19928;-39
2022/10/04 14:54:53;;;;;;;;;;;;;;;;;;5007614;28;19918;-39
2022/10/04 14:57:19;;;;;;;;;;;;;;;;;;5008411;28;19963;-40
2022/10/04 14:59:44;;;;;;;;;;;;;;;;;;5007361;28;19924;-40
2022/10/04 15:02:10;;;;;;;;;;;;;;;;;;5007012;28;20012;-40
2022/10/04 15:04:35;;;;;;;;;;;;;;;;;;5005852;28;19921;-40
2022/10/04 15:07:00;;;;;;;;;;;;;;;;;;5005236;28;19927;-40
2022/10/04 15:09:25;;;;;;;;;;;;;;;;;;5004769;28;19918;-40
2022/10/04 15:11:53;;;;;;;;;;;;;;;;;;5002691;28;19925;-40
2022/10/04 15:14:19;;;;;;;;;;;;;;;;;;5007341;28;19965;-40
2022/10/04 15:16:44;;;;;;;;;;;;;;;;;;5007600;28;19965;-40
2022/10/04 15:19:10;;;;;;;;;;;;;;;;;;5007929;28;19917;-40
2022/10/04 15:21:35;;;;;;;;;;;;;;;;;;5007605;28;19948;-39
2022/10/04 15:24:00;;;;;;;;;;;;;;;;;;5005595;28;20016;-40
2022/10/04 15:26:25;;;;;;;;;;;;;;;;;;5003054;28;19921;-39
2022/10/04 15:28:55;;;;;;;;;;;;;;;;;;5001064;28;19975;-39
2022/10/04 15:31:20;;;;;;;;;;;;;;;;;;4999588;28;20035;-40
2022/10/04 15:33:46;;;;;;;;;;;;;;;;;;5001431;28;20345;-40
2022/10/04 15:36:12;;;;;;;;;;;;;;;;;;5000237;28;19917;-40
2022/10/04 15:38:37;;;;;;;;;;;;;;;;;;5004692;28;19917;-40
2022/10/04 15:41:02;;;;;;;;;;;;;;;;;;5003870;28;20370;-40
2022/10/04 15:43:27;;;;;;;;;;;;;;;;;;5004362;28;20000;-40
2022/10/04 15:45:53;;;;;;;;;;;;;;;;;;5004260;28;20647;-40
2022/10/04 15:48:18;;;;;;;;;;;;;;;;;;5005755;28;19920;-39
2022/10/04 15:50:43;;;;;;;;;;;;;;;;;;5003892;28;19925;-40
2022/10/04 15:53:09;;;;;;;;;;;;;;;;;;5004451;28;19961;-40
2022/10/04 15:55:34;;;;;;;;;;;;;;;;;;5002160;28;19914;-40
2022/10/04 15:58:01;;;;;;;;;;;;;;;;;;5003182;28;19921;-38
2022/10/04 16:00:27;;;;;;;;;;;;;;;;;;5002610;28;19961;-40
2022/10/04 16:02:52;;;;;;;;;;;;;;;;;;5003804;28;19924;-39
2022/10/04 16:05:17;;;;;;;;;;;;;;;;;;5001725;28;19918;-40
2022/10/04 16:07:44;;;;;;;;;;;;;;;;;;5002719;28;19969;-40
2022/10/04 16:10:09;;;;;;;;;;;;;;;;;;4999973;28;20351;-40
2022/10/04 16:12:35;;;;;;;;;;;;;;;;;;5004830;28;19917;-40
2022/10/04 16:15:00;;;;;;;;;;;;;;;;;;5003523;28;19917;-40
2022/10/04 16:17:26;;;;;;;;;;;;;;;;;;5003138;28;19924;-40
2022/10/04 16:19:51;;;;;;;;;;;;;;;;;;4999894;28;19924;-41
2022/10/04 16:22:16;;;;;;;;;;;;;;;;;;5004212;28;19928;-40
2022/10/04 16:24:44;;;;;;;;;;;;;;;;;;5003086;28;19918;-40
2022/10/04 16:27:09;;;;;;;;;;;;;;;;;;5003681;28;19925;-41
2022/10/04 16:29:35;;;;;;;;;;;;;;;;;;5003531;28;19925;-40
2022/10/04 16:32:03;;;;;;;;;;;;;;;;;;5001352;28;19921;-40
2022/10/04 16:34:30;;;;;;;;;;;;;;;;;;5005288;28;19920;-41
2022/10/04 16:36:55;;;;;;;;;;;;;;;;;;5001866;28;19928;-40
2022/10/04 16:42:04;;;;;;;;;;;;;;;;;;5001745;28;20521;-41
2022/10/04 16:44:29;;;;;;;;;;;;;;;;;;5002139;28;19917;-40
2022/10/04 16:46:55;;;;;;;;;;;;;;;;;;5003795;28;20016;-40
2022/10/04 16:49:20;;;;;;;;;;;;;;;;;;5004536;28;19925;-40
2022/10/04 16:51:45;;;;;;;;;;;;;;;;;;5002374;28;20311;-40